Terminal Aerodrome Forecast
Issued by NWS

Home | Current Version | Previous Version | Text Only | Print | Product List | Glossary On
Versions: 1 2 3 4 5 6 7 8 9 10 11 12 13 14 15 16 17 18
000
FTUS42 KMLB 281726
TAFSFB
TAF
KSFB 281726Z 2818/0118 07011KT P6SM VCSH BKN018 OVC025
      TEMPO 2818/2822 3SM -RA BR
     FM010200 05007KT P6SM BKN005 OVC012
     FM010500 08004KT 3SM BR OVC003
     FM011400 13006KT P6SM SCT006 BKN015=

USA.gov is the U.S. government's official web portal to all federal, state and local government web resources and services.